This demonstration page uses our WeatherBlox Daily Observations layout. Learn more.

36.17497, -115.13722

Hourly Observations for April 2, 2015

Temp ( °F °C ) Dew Point ( °F °C ) Humidity (%) Winds ( mph kmh ) Pressure ( in mb ) Visibility ( mi km ) Precip ( " mm )
12:53 am 00:53 Clear 68 20 3 -16.1 7 7 ENE 6 9 29.72 1007 10 16.0934 0 0
1:53 am 01:53 Clear 68 20 -7 -21.7 5 5 W 9 15 29.75 1007 10 16.0934 0 0
2:53 am 02:53 Clear 67 19.4 -12 -24.4 4 4 W 21 33 29.75 1007 10 16.0934 0 0
3:53 am 03:53 Clear 65 18.3 -8 -22.2 5 5 W 12 19 29.78 1008 10 16.0934 0 0
4:53 am 04:53 Clear 63 17.2 6 -14.4 10 10 NNW 18 30 29.8 1009 10 16.0934 0 0
5:53 am 05:53 Clear 62 16.7 5 -15 10 10 NNW 23 37 29.83 1010 10 16.0934 0 0
6:53 am 06:53 Sunny 61 16.1 4 -15.6 10 10 NNW 17 28 29.88 1012 10 16.0934 0 0
7:53 am 07:53 Sunny 62 16.7 5 -15 10 10 NNW 17 28 29.93 1013 10 16.0934 0 0
8:53 am 08:53 Sunny 64 17.8 6 -14.4 10 10 NNW 24 39 29.96 1015 10 16.0934 0 0
9:53 am 09:53 Sunny 65 18.3 10 -12.2 11 11 NNW 25 41 30 1016 10 16.0934 0 0
10:53 am 10:53 Sunny 67 19.4 7 -13.9 9 9 N 24 39 30.02 1017 10 16.0934 0 0
11:53 am 11:53 Sunny 69 20.6 6 -14.4 8 8 N 22 35 30.03 1017 10 16.0934 0 0
12:53 pm 12:53 Sunny 70 21.1 5 -15 8 8 N 18 30 30.02 1017 10 16.0934 0 0
1:53 pm 13:53 Sunny 71 21.7 3 -16.1 7 7 N 17 28 30.01 1016 10 16.0934 0 0
2:53 pm 14:53 Sunny 72 22.2 0 -17.8 6 6 N 15 24 30 1016 10 16.0934 0 0
3:53 pm 15:53 Sunny 72 22.2 -4 -20 5 5 N 14 22 30 1016 10 16.0934 0 0
4:53 pm 16:53 Sunny 72 22.2 -3 -19.4 5 5 N 15 24 29.99 1016 10 16.0934 0 0
5:53 pm 17:53 Sunny 71 21.7 -2 -18.9 5 5 NNW 16 26 30 1016 10 16.0934 0 0
6:53 pm 18:53 Sunny 69 20.6 1 -17.2 6 6 NNW 10 17 30.02 1017 10 16.0934 0 0
7:53 pm 19:53 Clear 67 19.4 2 -16.7 7 7 NE 8 13 30.05 1018 10 16.0934 0 0
8:53 pm 20:53 Clear 65 18.3 5 -15 9 9 NNE 12 19 30.09 1019 10 16.0934 0 0
9:53 pm 21:53 Clear 63 17.2 5 -15 10 10 NNW 3 6 30.12 1020 10 16.0934 0 0
10:53 pm 22:53 Clear 62 16.7 12 -11.1 14 14 E 10 17 30.15 1021 10 16.0934 0 0
11:53 pm 23:53 Clear 61 16.1 10 -12.2 13 13 ENE 13 20 30.16 1021 10 16.0934 0 0

Powered by AerisWeather